createdAt,value
2023-01-11T00:02:23.968Z,5.38
2023-01-11T00:04:52.022Z,5.85
2023-01-11T00:07:20.211Z,5.82
2023-01-11T00:09:48.195Z,5.10
2023-01-11T00:12:16.508Z,5.09
2023-01-11T00:14:44.409Z,5.87
2023-01-11T00:17:13.620Z,5.69
2023-01-11T00:19:41.412Z,5.66
2023-01-11T00:22:09.299Z,5.68
2023-01-11T00:24:37.189Z,5.58
2023-01-11T00:27:05.223Z,5.51
2023-01-11T00:29:33.049Z,5.09
2023-01-11T00:32:00.879Z,5.72
2023-01-11T00:34:30.136Z,5.63
2023-01-11T00:36:58.072Z,5.12
2023-01-11T00:39:26.045Z,5.77
2023-01-11T00:42:11.136Z,5.72
2023-01-11T00:44:56.516Z,5.68
2023-01-11T00:47:41.951Z,5.78
2023-01-11T00:50:12.615Z,5.56
2023-01-11T00:52:40.853Z,5.27
2023-01-11T00:55:09.856Z,5.74
2023-01-11T00:57:37.677Z,5.64
2023-01-11T01:00:07.352Z,5.66
2023-01-11T01:02:35.423Z,5.67
2023-01-11T01:05:03.614Z,5.78
2023-01-11T01:07:33.136Z,5.51
2023-01-11T01:10:01.148Z,5.73
2023-01-11T01:12:46.546Z,5.81
2023-01-11T01:15:14.537Z,5.79
2023-01-11T01:17:42.572Z,5.75
2023-01-11T01:20:11.552Z,5.15
2023-01-11T01:22:40.899Z,4.63
2023-01-11T01:25:09.635Z,5.24
2023-01-11T01:27:37.946Z,4.45
2023-01-11T01:30:07.606Z,5.77
2023-01-11T01:32:35.675Z,5.36
2023-01-11T01:35:03.932Z,5.75
2023-01-11T01:37:31.756Z,5.76
2023-01-11T01:40:00.986Z,5.77
2023-01-11T01:42:28.901Z,5.87
2023-01-11T01:45:00.485Z,5.86
2023-01-11T01:47:39.412Z,5.77
2023-01-11T01:50:13.254Z,5.94
2023-01-11T01:52:42.328Z,5.95
2023-01-11T01:55:17.442Z,5.84
2023-01-11T01:57:46.052Z,5.95
2023-01-11T02:00:15.264Z,6.02
2023-01-11T02:02:45.356Z,5.79
2023-01-11T02:05:15.491Z,6.00
2023-01-11T02:07:44.528Z,5.33
2023-01-11T02:10:16.408Z,5.91
2023-01-11T02:12:49.031Z,6.14
2023-01-11T02:15:18.281Z,6.20
2023-01-11T02:17:46.157Z,6.18
2023-01-11T02:20:27.554Z,5.70
2023-01-11T02:23:31.021Z,5.93
2023-01-11T02:26:53.064Z,6.21
2023-01-11T02:29:34.506Z,5.77
2023-01-11T02:32:10.990Z,6.02
2023-01-11T02:34:46.331Z,6.26
2023-01-11T02:37:26.461Z,6.27
2023-01-11T02:40:03.856Z,5.90
2023-01-11T02:42:56.760Z,6.23
2023-01-11T02:45:40.187Z,6.34
2023-01-11T02:48:17.603Z,6.24
2023-01-11T02:50:52.008Z,6.27
2023-01-11T02:53:24.867Z,6.40
2023-01-11T02:55:58.386Z,6.33
2023-01-11T02:58:29.914Z,6.48
2023-01-11T03:01:00.684Z,5.18
2023-01-11T03:03:29.648Z,6.24
2023-01-11T03:06:03.165Z,6.53
2023-01-11T03:08:52.891Z,6.56
2023-01-11T03:11:42.192Z,5.61
2023-01-11T03:14:21.139Z,6.41
2023-01-11T03:16:56.017Z,6.28
2023-01-11T03:19:33.898Z,6.54
2023-01-11T03:22:08.380Z,6.48
2023-01-11T03:24:45.127Z,6.50
2023-01-11T03:27:22.200Z,6.58
2023-01-11T03:29:55.326Z,6.51
2023-01-11T03:32:37.759Z,6.53
2023-01-11T03:35:14.574Z,5.90
2023-01-11T03:37:48.955Z,5.34
2023-01-11T03:40:23.330Z,6.37
2023-01-11T03:43:14.675Z,6.51
2023-01-11T03:45:53.385Z,6.50
2023-01-11T03:48:28.257Z,5.85
2023-01-11T03:50:58.376Z,6.10
2023-01-11T03:53:31.225Z,6.49
2023-01-11T03:56:01.680Z,6.27
2023-01-11T03:58:30.501Z,6.35
2023-01-11T04:00:59.613Z,6.36
2023-01-11T04:03:29.360Z,6.28
2023-01-11T04:06:00.663Z,5.36
2023-01-11T04:08:28.857Z,6.24
2023-01-11T04:10:56.764Z,6.29
2023-01-11T04:13:24.615Z,6.32
2023-01-11T04:15:54.006Z,6.32
2023-01-11T04:18:22.000Z,6.35
2023-01-11T04:20:51.385Z,6.37
2023-01-11T04:23:19.309Z,6.27
2023-01-11T04:25:48.102Z,6.37
2023-01-11T04:28:16.340Z,6.35
2023-01-11T04:30:44.132Z,6.37
2023-01-11T04:33:13.278Z,5.90
2023-01-11T04:35:41.355Z,6.36
2023-01-11T04:38:10.915Z,6.34
2023-01-11T04:40:38.729Z,6.06
2023-01-11T04:43:05.576Z,5.95
2023-01-11T04:45:33.719Z,5.73
2023-01-11T04:48:01.681Z,6.31
2023-01-11T04:50:29.780Z,6.31
2023-01-11T04:52:59.635Z,5.73
2023-01-11T04:55:28.867Z,6.31
2023-01-11T04:57:56.800Z,6.18
2023-01-11T05:00:24.844Z,6.13
2023-01-11T05:02:52.702Z,6.42
2023-01-11T05:05:20.689Z,6.30
2023-01-11T05:07:49.980Z,5.75
2023-01-11T05:10:20.803Z,6.22
2023-01-11T05:12:50.416Z,6.39
2023-01-11T05:15:19.544Z,6.47
2023-01-11T05:17:47.578Z,6.36
2023-01-11T05:20:15.568Z,5.72
2023-01-11T05:22:43.524Z,6.52
2023-01-11T05:25:11.574Z,5.93
2023-01-11T05:27:39.479Z,6.26
2023-01-11T05:30:12.085Z,6.41
2023-01-11T05:32:39.961Z,6.42
2023-01-11T05:35:11.226Z,5.77
2023-01-11T05:37:39.442Z,6.61
2023-01-11T05:40:09.037Z,6.03
2023-01-11T05:42:36.851Z,5.58
2023-01-11T05:45:23.027Z,6.41
2023-01-11T05:47:54.008Z,6.59
2023-01-11T05:50:22.203Z,5.55
2023-01-11T05:52:50.096Z,6.62
2023-01-11T05:55:18.168Z,6.41
2023-01-11T05:57:46.792Z,6.63
2023-01-11T06:00:15.835Z,6.30
2023-01-11T06:02:43.820Z,6.79
2023-01-11T06:05:13.200Z,6.93
2023-01-11T06:07:41.243Z,5.90
2023-01-11T06:10:10.516Z,6.91
2023-01-11T06:12:38.491Z,5.91
2023-01-11T06:15:07.328Z,6.81
2023-01-11T06:17:35.570Z,6.95
2023-01-11T06:20:03.463Z,6.87
2023-01-11T06:22:32.678Z,6.94
2023-01-11T06:25:00.791Z,6.91
2023-01-11T06:27:28.620Z,6.83
2023-01-11T06:29:56.580Z,6.65
2023-01-11T06:32:24.443Z,6.34
2023-01-11T06:34:52.560Z,6.89
2023-01-11T06:37:20.462Z,6.93
2023-01-11T06:39:49.721Z,5.94
2023-01-11T06:42:17.516Z,6.90
2023-01-11T06:44:45.425Z,6.70
2023-01-11T06:47:13.295Z,6.81
2023-01-11T06:49:41.200Z,6.33
2023-01-11T06:52:09.081Z,6.95
2023-01-11T06:54:36.916Z,7.05
2023-01-11T06:57:06.282Z,7.09
2023-01-11T06:59:34.388Z,6.98
2023-01-11T07:02:02.286Z,6.99
2023-01-11T07:04:30.960Z,7.01
2023-01-11T07:06:59.281Z,6.39
2023-01-11T07:09:27.525Z,7.04
2023-01-11T07:11:55.375Z,7.00
2023-01-11T07:14:25.203Z,6.71
2023-01-11T07:16:53.148Z,6.97
2023-01-11T07:19:21.207Z,6.60
2023-01-11T07:21:49.093Z,7.00
2023-01-11T07:24:17.546Z,6.47
2023-01-11T07:26:45.447Z,5.96
2023-01-11T07:29:13.404Z,6.82
2023-01-11T07:31:42.752Z,6.92
2023-01-11T07:34:10.627Z,6.54
2023-01-11T07:36:39.997Z,6.69
2023-01-11T07:39:08.181Z,7.03
2023-01-11T07:41:53.695Z,6.63
2023-01-11T07:44:21.456Z,7.07
2023-01-11T07:46:51.088Z,7.18
2023-01-11T07:49:19.103Z,7.21
2023-01-11T07:51:47.000Z,7.26
2023-01-11T07:54:15.121Z,7.14
2023-01-11T07:56:43.000Z,7.26
2023-01-11T07:59:11.018Z,6.95
2023-01-11T08:01:38.856Z,7.17
2023-01-11T08:04:11.966Z,7.22
2023-01-11T08:06:40.332Z,7.32
2023-01-11T08:09:10.207Z,7.37
2023-01-11T08:11:55.494Z,7.40
2023-01-11T08:14:41.545Z,7.35
2023-01-11T08:17:11.920Z,7.31
2023-01-11T08:19:42.040Z,7.22
2023-01-11T08:22:10.278Z,7.37
2023-01-11T08:24:38.412Z,7.35
2023-01-11T08:27:06.587Z,7.46
2023-01-11T08:29:34.762Z,7.14
2023-01-11T08:32:02.773Z,7.50
2023-01-11T08:34:31.683Z,7.43
2023-01-11T08:37:02.292Z,7.56
2023-01-11T08:39:31.064Z,7.49
2023-01-11T08:41:59.163Z,6.70
2023-01-11T08:44:34.024Z,7.57
2023-01-11T08:47:02.811Z,6.66
2023-01-11T08:49:31.268Z,7.62
2023-01-11T08:51:59.155Z,7.23
2023-01-11T08:54:28.512Z,7.59
2023-01-11T08:56:56.310Z,7.35
2023-01-11T08:59:24.164Z,7.22
2023-01-11T09:01:52.148Z,7.50
2023-01-11T09:04:25.053Z,7.79
2023-01-11T09:06:53.953Z,7.74
2023-01-11T09:09:21.871Z,7.10
2023-01-11T09:12:00.274Z,7.59
2023-01-11T09:14:29.337Z,7.01
2023-01-11T09:16:57.909Z,7.08
2023-01-11T09:19:26.729Z,7.87
2023-01-11T09:21:57.899Z,7.73
2023-01-11T09:24:25.775Z,7.83
2023-01-11T09:26:55.589Z,7.72
2023-01-11T09:29:23.519Z,7.19
2023-01-11T09:31:52.071Z,7.73
2023-01-11T09:34:20.996Z,7.70
2023-01-11T09:36:49.852Z,7.64
2023-01-11T09:39:20.610Z,7.83
2023-01-11T09:42:18.783Z,7.81
2023-01-11T09:44:52.358Z,7.19
2023-01-11T09:47:32.159Z,6.90
2023-01-11T09:50:04.787Z,7.86
2023-01-11T09:52:39.684Z,7.94
2023-01-11T09:55:14.439Z,7.70
2023-01-11T09:57:54.494Z,7.94
2023-01-11T10:00:29.871Z,6.95
2023-01-11T10:03:24.335Z,7.94
2023-01-11T10:06:06.203Z,8.05
2023-01-11T10:18:33.754Z,8.07
2023-01-11T10:18:39.331Z,8.06
2023-01-11T10:20:45.763Z,8.12
2023-01-11T10:23:18.571Z,8.15
2023-01-11T10:25:51.727Z,8.26
2023-01-11T10:28:27.594Z,8.14
2023-01-11T10:31:11.958Z,8.08
2023-01-11T10:33:57.672Z,8.05
2023-01-11T10:36:51.718Z,8.00
2023-01-11T10:39:46.552Z,8.04
2023-01-11T10:42:21.661Z,8.17
2023-01-11T10:45:00.062Z,7.74
2023-01-11T10:47:36.637Z,8.14
2023-01-11T10:50:15.793Z,8.14
2023-01-11T10:52:52.005Z,8.17
2023-01-11T10:55:27.791Z,8.22
2023-01-11T10:58:08.494Z,8.20
2023-01-11T11:00:48.425Z,7.81
2023-01-11T11:03:49.183Z,8.31
2023-01-11T11:06:25.159Z,8.10
2023-01-11T11:09:01.170Z,8.29
2023-01-11T11:11:35.959Z,8.22
2023-01-11T11:14:12.130Z,8.27
2023-01-11T11:16:48.784Z,8.17
2023-01-11T11:19:22.871Z,8.48
2023-01-11T11:21:52.447Z,8.65
2023-01-11T11:24:27.858Z,8.56
2023-01-11T11:27:02.140Z,8.87
2023-01-11T11:29:30.880Z,8.01
2023-01-11T11:32:01.609Z,8.52
2023-01-11T11:34:31.248Z,8.94
2023-01-11T11:37:01.592Z,8.94
2023-01-11T11:39:31.474Z,8.23
2023-01-11T11:42:07.401Z,8.63
2023-01-11T11:44:35.497Z,9.07
2023-01-11T11:47:05.507Z,9.36
2023-01-11T11:49:36.928Z,9.35
2023-01-11T11:52:06.817Z,8.89
2023-01-11T11:54:38.072Z,8.88
2023-01-11T11:57:16.599Z,8.26
2023-01-11T11:59:47.602Z,9.74
2023-01-11T12:02:25.539Z,9.00
2023-01-11T12:04:56.773Z,9.81
2023-01-11T12:07:28.154Z,9.88
2023-01-11T12:10:01.856Z,9.03
2023-01-11T12:12:29.919Z,9.74
2023-01-11T12:15:19.731Z,9.78
2023-01-11T12:17:48.591Z,9.81
2023-01-11T12:20:34.636Z,9.38
2023-01-11T12:23:19.888Z,9.89
2023-01-11T12:26:22.905Z,9.88
2023-01-11T12:29:27.601Z,9.81
2023-01-11T12:32:10.039Z,8.87
2023-01-11T12:34:51.970Z,8.87
2023-01-11T12:37:36.269Z,9.92
2023-01-11T12:40:15.326Z,9.95
2023-01-11T12:43:08.087Z,9.86
2023-01-11T12:45:46.903Z,9.88
2023-01-11T12:48:29.491Z,9.76
2023-01-11T12:51:13.365Z,9.76
2023-01-11T12:54:05.548Z,9.36
2023-01-11T12:56:47.768Z,9.90
2023-01-11T12:59:29.800Z,9.71
2023-01-11T13:02:11.915Z,9.43
2023-01-11T13:04:58.961Z,9.73
2023-01-11T13:07:44.837Z,9.78
2023-01-11T13:10:46.102Z,9.78
2023-01-11T13:13:20.250Z,9.71
2023-01-11T13:15:57.150Z,9.60
2023-01-11T13:18:34.222Z,9.58
2023-01-11T13:21:12.249Z,9.66
2023-01-11T13:23:45.505Z,9.74
2023-01-11T13:26:24.493Z,9.13
2023-01-11T13:28:59.331Z,9.72
2023-01-11T13:31:27.910Z,9.12
2023-01-11T13:34:02.619Z,9.63
2023-01-11T13:36:38.596Z,9.63
2023-01-11T13:39:14.735Z,9.65
2023-01-11T13:41:48.449Z,8.63
2023-01-11T13:44:20.464Z,9.03
2023-01-11T13:47:01.043Z,9.06
2023-01-11T13:49:54.546Z,9.48
2023-01-11T13:52:36.783Z,9.46
2023-01-11T13:55:20.856Z,9.37
2023-01-11T13:58:00.422Z,9.19
2023-01-11T14:00:34.664Z,9.11
2023-01-11T14:03:13.888Z,9.38
2023-01-11T14:05:49.446Z,9.36
2023-01-11T14:08:32.075Z,9.15
2023-01-11T14:11:09.636Z,9.15
2023-01-11T14:14:18.276Z,9.18
2023-01-11T14:17:03.523Z,9.18
2023-01-11T14:19:38.683Z,9.12
2023-01-11T14:22:20.246Z,9.22
2023-01-11T14:24:57.162Z,8.77
2023-01-11T14:27:43.464Z,8.62
2023-01-11T14:30:34.350Z,8.89
2023-01-11T14:33:40.711Z,9.14
2023-01-11T14:36:33.804Z,9.06
2023-01-11T14:39:29.719Z,9.05
2023-01-11T14:42:31.978Z,8.89
2023-01-11T14:45:17.155Z,8.43
2023-01-11T14:48:11.856Z,8.98
2023-01-11T14:51:10.670Z,9.08
2023-01-11T14:53:43.499Z,8.79
2023-01-11T14:56:37.577Z,8.86
2023-01-11T14:59:07.318Z,8.95
2023-01-11T15:02:09.180Z,8.93
2023-01-11T15:04:59.930Z,8.86
2023-01-11T15:07:42.110Z,9.06
2023-01-11T15:10:46.477Z,8.89
2023-01-11T15:13:19.229Z,8.28
2023-01-11T15:16:04.868Z,8.75
2023-01-11T15:18:33.498Z,8.76
2023-01-11T15:21:05.892Z,8.50
2023-01-11T15:23:37.802Z,8.36
2023-01-11T15:26:09.352Z,8.52
2023-01-11T15:28:50.073Z,8.47
2023-01-11T15:31:35.084Z,8.44
2023-01-11T15:34:06.258Z,8.63
2023-01-11T15:37:09.923Z,8.60
2023-01-11T15:39:45.361Z,8.42
2023-01-11T15:42:39.687Z,7.96
2023-01-11T15:45:28.494Z,8.48
2023-01-11T15:48:22.956Z,8.46
2023-01-11T15:51:05.259Z,8.50
2023-01-11T15:54:06.243Z,8.40
2023-01-11T15:56:54.323Z,8.42
2023-01-11T15:59:57.661Z,8.46
2023-01-11T16:02:47.343Z,7.70
2023-01-11T16:05:19.588Z,8.19
2023-01-11T16:07:53.112Z,7.96
2023-01-11T16:10:54.203Z,8.37
2023-01-11T16:13:44.670Z,7.70
2023-01-11T16:16:19.538Z,7.85
2023-01-11T16:18:51.015Z,8.01
2023-01-11T16:21:25.104Z,7.91
2023-01-11T16:23:53.195Z,8.12
2023-01-11T16:26:22.742Z,7.45
2023-01-11T16:28:55.569Z,7.93
2023-01-11T16:31:23.973Z,7.66
2023-01-11T16:33:53.357Z,7.77
2023-01-11T16:36:23.841Z,7.20
2023-01-11T16:39:01.886Z,7.69
2023-01-11T16:41:35.787Z,7.38
2023-01-11T16:44:08.931Z,7.42
2023-01-11T16:47:11.460Z,7.41
2023-01-11T16:49:40.153Z,7.24
2023-01-11T16:52:43.781Z,7.62
2023-01-11T16:55:25.322Z,7.67
2023-01-11T16:57:57.378Z,7.57
2023-01-11T17:00:32.987Z,7.63
2023-01-11T17:03:28.912Z,7.71
2023-01-11T17:06:07.555Z,7.60
2023-01-11T17:08:37.191Z,7.67
2023-01-11T17:11:11.641Z,7.71
2023-01-11T17:14:04.850Z,7.68
2023-01-11T17:16:38.208Z,7.68
2023-01-11T17:19:12.911Z,7.67
2023-01-11T17:21:42.582Z,7.56
2023-01-11T17:24:15.009Z,7.24
2023-01-11T17:26:46.550Z,7.48
2023-01-11T17:29:19.682Z,6.99
2023-01-11T17:31:49.109Z,7.54
2023-01-11T17:34:20.656Z,7.51
2023-01-11T17:36:49.287Z,7.51
2023-01-11T17:39:24.093Z,7.60
2023-01-11T17:42:09.781Z,6.33
2023-01-11T17:44:55.651Z,7.57
2023-01-11T17:47:29.705Z,6.81
2023-01-11T17:50:01.040Z,7.57
2023-01-11T17:52:43.815Z,6.91
2023-01-11T17:55:21.035Z,7.64
2023-01-11T17:58:12.079Z,7.56
2023-01-11T18:00:41.244Z,7.61
2023-01-11T18:03:14.584Z,7.70
2023-01-11T18:05:44.059Z,7.67
2023-01-11T18:08:19.978Z,7.07
2023-01-11T18:10:55.207Z,7.29
2023-01-11T18:13:28.712Z,7.61
2023-01-11T18:15:56.788Z,7.51
2023-01-11T18:18:43.534Z,7.60
2023-01-11T18:21:40.115Z,7.63
2023-01-11T18:24:34.382Z,7.46
2023-01-11T18:27:17.183Z,7.51
2023-01-11T18:29:50.683Z,7.18
2023-01-11T18:32:19.284Z,7.71
2023-01-11T18:34:54.603Z,6.67
2023-01-11T18:37:23.464Z,7.57
2023-01-11T18:39:53.151Z,6.99
2023-01-11T18:42:25.503Z,7.67
2023-01-11T18:44:53.629Z,7.46
2023-01-11T18:47:23.409Z,7.64
2023-01-11T18:49:54.254Z,7.72
2023-01-11T18:52:27.295Z,6.98
2023-01-11T18:54:55.663Z,7.70
2023-01-11T18:57:24.277Z,7.44
2023-01-11T18:59:53.512Z,7.44
2023-01-11T19:02:24.690Z,7.56
2023-01-11T19:04:56.174Z,7.12
2023-01-11T19:07:24.965Z,7.70
2023-01-11T19:09:54.860Z,7.75
2023-01-11T19:12:23.424Z,7.39
2023-01-11T19:14:51.520Z,6.78
2023-01-11T19:17:19.416Z,7.49
2023-01-11T19:19:47.672Z,7.51
2023-01-11T19:22:17.133Z,7.22
2023-01-11T19:24:44.962Z,7.72
2023-01-11T19:27:13.525Z,7.58
2023-01-11T19:29:41.607Z,7.71
2023-01-11T19:32:09.849Z,7.24
2023-01-11T19:34:39.597Z,7.77
2023-01-11T19:37:07.748Z,7.39
2023-01-11T19:39:37.231Z,6.51
2023-01-11T19:42:05.595Z,7.45
2023-01-11T19:44:35.265Z,7.61
2023-01-11T19:47:11.416Z,7.67
2023-01-11T19:49:40.056Z,7.53
2023-01-11T19:52:12.666Z,7.57
2023-01-11T19:54:44.058Z,6.19
2023-01-11T19:57:14.024Z,7.48
2023-01-11T19:59:42.637Z,7.74
2023-01-11T20:02:12.579Z,7.67
2023-01-11T20:04:41.094Z,7.83
2023-01-11T20:07:10.163Z,7.96
2023-01-11T20:09:39.028Z,7.71
2023-01-11T20:12:09.748Z,7.68
2023-01-11T20:14:38.243Z,7.91
2023-01-11T20:17:06.124Z,7.86
2023-01-11T20:19:34.449Z,7.78
2023-01-11T20:22:02.320Z,7.78
2023-01-11T20:24:30.408Z,7.67
2023-01-11T20:26:59.576Z,6.65
2023-01-11T20:29:29.269Z,7.86
2023-01-11T20:32:13.408Z,7.69
2023-01-11T20:34:45.358Z,7.81
2023-01-11T20:37:14.956Z,7.36
2023-01-11T20:39:42.916Z,7.83
2023-01-11T20:42:12.442Z,7.77
2023-01-11T20:44:41.731Z,7.91
2023-01-11T20:47:09.603Z,8.03
2023-01-11T20:49:37.632Z,7.95
2023-01-11T20:52:06.153Z,7.61
2023-01-11T20:54:33.979Z,7.31
2023-01-11T20:57:05.502Z,7.81
2023-01-11T20:59:33.539Z,7.83
2023-01-11T21:02:02.804Z,7.61
2023-01-11T21:04:30.826Z,7.77
2023-01-11T21:06:58.755Z,7.56
2023-01-11T21:09:26.544Z,7.73
2023-01-11T21:11:54.413Z,7.75
2023-01-11T21:14:22.741Z,7.78
2023-01-11T21:16:50.732Z,7.86
2023-01-11T21:19:20.114Z,7.88
2023-01-11T21:21:49.665Z,7.44
2023-01-11T21:24:17.971Z,7.92
2023-01-11T21:26:47.863Z,7.72
2023-01-11T21:29:16.147Z,8.01
2023-01-11T21:31:44.513Z,7.91
2023-01-11T21:34:13.281Z,7.64
2023-01-11T21:36:44.971Z,8.00
2023-01-11T21:39:15.494Z,7.98
2023-01-11T21:41:58.043Z,7.98
2023-01-11T21:44:30.696Z,7.90
2023-01-11T21:46:58.671Z,7.95
2023-01-11T21:49:26.573Z,7.20
2023-01-11T21:51:56.110Z,7.30
2023-01-11T21:54:24.336Z,7.81
2023-01-11T21:56:52.409Z,7.76
2023-01-11T21:59:21.550Z,7.71
2023-01-11T22:01:49.826Z,7.14
2023-01-11T22:04:19.810Z,7.07
2023-01-11T22:06:51.676Z,7.67
2023-01-11T22:09:22.070Z,7.69
2023-01-11T22:11:50.991Z,7.75
2023-01-11T22:14:19.149Z,7.60
2023-01-11T22:16:47.142Z,7.82
2023-01-11T22:19:15.390Z,7.55
2023-01-11T22:21:43.438Z,7.97
2023-01-11T22:24:12.258Z,7.25
2023-01-11T22:26:42.214Z,7.81
2023-01-11T22:29:14.951Z,7.85
2023-01-11T22:31:45.949Z,7.96
2023-01-11T22:34:15.133Z,8.02
2023-01-11T22:36:43.662Z,7.19
2023-01-11T22:39:12.435Z,7.98
2023-01-11T22:41:41.967Z,7.84
2023-01-11T22:44:11.074Z,7.86
2023-01-11T22:46:39.528Z,7.92
2023-01-11T22:49:07.907Z,7.46
2023-01-11T22:51:35.966Z,7.88
2023-01-11T22:54:05.107Z,7.76
2023-01-11T22:56:33.791Z,7.74
2023-01-11T22:59:03.410Z,7.16
2023-01-11T23:01:33.280Z,7.58
2023-01-11T23:04:01.923Z,7.74
2023-01-11T23:06:31.528Z,7.69
2023-01-11T23:09:00.383Z,6.67
2023-01-11T23:11:47.602Z,7.66
2023-01-11T23:14:18.899Z,7.68
2023-01-11T23:16:48.223Z,7.46
2023-01-11T23:19:19.964Z,7.59
2023-01-11T23:21:48.718Z,7.50
2023-01-11T23:24:17.986Z,7.35
2023-01-11T23:26:46.223Z,7.31
2023-01-11T23:29:14.442Z,7.24
2023-01-11T23:31:44.286Z,7.21
2023-01-11T23:34:13.193Z,7.22
2023-01-11T23:36:42.861Z,7.24
2023-01-11T23:39:13.993Z,6.44
2023-01-11T23:41:59.645Z,6.73
2023-01-11T23:44:27.926Z,6.78
2023-01-11T23:47:14.738Z,6.17
2023-01-11T23:49:43.974Z,7.22
2023-01-11T23:52:12.290Z,7.07
2023-01-11T23:54:40.218Z,7.05
2023-01-11T23:57:09.462Z,7.06
2023-01-11T23:59:37.495Z,6.78
